Time;durP1;ratioP1;P1;durP2;ratioP2;P2;SDS_P1;SDS_P2;PMS_P1;PMS_P2;Temp;Humidity;BMP_temperature;BMP_pressure;BME280_temperature;BME280_humidity;BME280_pressure;Samples;Min_cycle;Max_cycle;Signal;HPM_P1;HPM_P2
2023/03/06 00:00:34;;;;;;;;;;;4.00;88.90;;;;;;4997147;28;19968;-74
2023/03/06 00:02:59;;;;;;;;;;;4.00;89.00;;;;;;4999143;28;19936;-74
2023/03/06 00:05:25;;;;;;;;;;;3.90;89.00;;;;;;4997458;28;19913;-74
2023/03/06 00:07:51;;;;;;;;;;;4.00;89.20;;;;;;4997126;28;20012;-74
2023/03/06 00:10:18;;;;;;;;;;;4.10;89.00;;;;;;5008028;28;19929;-74
2023/03/06 00:12:43;;;;;;;;;;;4.10;88.90;;;;;;5000978;28;20360;-74
2023/03/06 00:15:09;;;;;;;;;;;3.90;88.70;;;;;;4997205;28;19924;-74
2023/03/06 00:17:34;;;;;;;;;;;3.90;89.00;;;;;;5001962;28;19921;-73
2023/03/06 00:20:00;;;;;;;;;;;3.90;88.90;;;;;;4997436;28;20392;-73
2023/03/06 00:22:25;;;;;;;;;;;3.80;89.00;;;;;;5005667;28;19921;-74
2023/03/06 00:24:52;;;;;;;;;;;3.90;89.00;;;;;;5003744;28;19920;-74
2023/03/06 00:27:17;;;;;;;;;;;3.80;89.00;;;;;;4996630;28;19918;-74
2023/03/06 00:29:43;;;;;;;;;;;3.90;89.10;;;;;;5003177;28;20281;-73
2023/03/06 00:32:09;;;;;;;;;;;3.90;88.90;;;;;;5004845;28;19917;-74
2023/03/06 00:34:34;;;;;;;;;;;3.90;88.90;;;;;;5002669;28;19914;-72
2023/03/06 00:37:03;;;;;;;;;;;3.80;88.90;;;;;;4999618;28;19984;-74
2023/03/06 00:39:29;;;;;;;;;;;3.80;88.80;;;;;;5006228;28;19921;-74
2023/03/06 00:41:54;;;;;;;;;;;3.90;89.10;;;;;;4999297;28;20374;-73
2023/03/06 00:44:20;;;;;;;;;;;3.90;89.20;;;;;;4994742;28;19958;-74
2023/03/06 00:46:45;;;;;;;;;;;3.90;89.10;;;;;;5003114;28;19918;-73
2023/03/06 00:49:11;;;;;;;;;;;4.00;88.90;;;;;;5000259;28;20005;-73
2023/03/06 00:51:36;;;;;;;;;;;4.00;88.80;;;;;;5002402;28;19917;-74
2023/03/06 00:54:02;;;;;;;;;;;4.00;88.60;;;;;;4993342;28;19922;-74
2023/03/06 00:56:28;;;;;;;;;;;4.00;88.90;;;;;;4994805;28;20365;-74
2023/03/06 00:58:54;;;;;;;;;;;4.00;88.80;;;;;;5000309;28;20012;-73
2023/03/06 01:01:19;;;;;;;;;;;4.10;88.80;;;;;;5004776;28;20005;-74
2023/03/06 01:03:45;;;;;;;;;;;4.10;88.40;;;;;;5004905;28;19928;-74
2023/03/06 01:06:10;;;;;;;;;;;4.00;88.20;;;;;;5008393;28;19914;-74
2023/03/06 01:08:36;;;;;;;;;;;4.10;88.40;;;;;;5000111;28;20349;-74
2023/03/06 01:11:01;;;;;;;;;;;4.10;88.10;;;;;;5008336;28;19923;-73
2023/03/06 01:13:27;;;;;;;;;;;4.00;88.30;;;;;;5011926;28;19968;-74
2023/03/06 01:15:52;;;;;;;;;;;4.00;88.40;;;;;;4999897;28;20377;-74
2023/03/06 01:18:18;;;;;;;;;;;4.10;88.40;;;;;;5012492;28;20210;-73
2023/03/06 01:20:43;;;;;;;;;;;4.10;88.50;;;;;;5004673;28;19983;-74
2023/03/06 01:23:09;;;;;;;;;;;4.10;88.30;;;;;;5007100;28;20333;-73
2023/03/06 01:25:34;;;;;;;;;;;4.10;88.50;;;;;;5009313;28;19924;-72
2023/03/06 01:28:00;;;;;;;;;;;4.10;88.00;;;;;;5008226;28;20364;-74
2023/03/06 01:30:25;;;;;;;;;;;4.10;88.00;;;;;;5003923;28;19925;-74
2023/03/06 01:32:50;;;;;;;;;;;4.10;88.10;;;;;;5011469;28;19913;-74
2023/03/06 01:35:16;;;;;;;;;;;4.10;87.90;;;;;;5002217;28;19918;-74
2023/03/06 01:37:41;;;;;;;;;;;4.10;87.90;;;;;;5009706;28;19920;-74
2023/03/06 01:40:07;;;;;;;;;;;3.90;87.90;;;;;;5006264;28;19913;-74
2023/03/06 01:42:33;;;;;;;;;;;4.00;87.90;;;;;;4999240;28;19920;-74
2023/03/06 01:45:00;;;;;;;;;;;4.10;88.20;;;;;;5000582;28;19922;-74
2023/03/06 01:47:25;;;;;;;;;;;4.00;87.60;;;;;;5001106;28;19917;-74
2023/03/06 01:49:51;;;;;;;;;;;4.10;87.80;;;;;;5001975;28;19965;-74
2023/03/06 01:52:17;;;;;;;;;;;4.20;87.70;;;;;;5001565;28;20487;-74
2023/03/06 01:54:45;;;;;;;;;;;4.10;87.00;;;;;;5004076;28;19952;-73
2023/03/06 01:57:26;;;;;;;;;;;4.10;86.70;;;;;;5002921;28;20570;-73
2023/03/06 01:59:54;;;;;;;;;;;4.00;87.00;;;;;;5003646;28;19914;-73
2023/03/06 02:02:20;;;;;;;;;;;4.00;87.30;;;;;;5006899;28;20044;-74
2023/03/06 02:04:46;;;;;;;;;;;3.80;87.50;;;;;;5007024;28;20004;-74
2023/03/06 02:07:13;;;;;;;;;;;3.90;87.90;;;;;;5009045;28;20421;-74
2023/03/06 02:09:38;;;;;;;;;;;3.90;87.90;;;;;;5007167;28;19921;-74
2023/03/06 02:12:08;;;;;;;;;;;4.00;87.80;;;;;;5003368;28;20436;-74
2023/03/06 02:14:34;;;;;;;;;;;3.90;87.90;;;;;;5010390;28;19913;-73
2023/03/06 02:17:00;;;;;;;;;;;3.90;88.10;;;;;;5005608;28;19914;-73
2023/03/06 02:19:31;;;;;;;;;;;4.00;88.20;;;;;;5005051;28;19909;-74
2023/03/06 02:21:57;;;;;;;;;;;4.00;87.50;;;;;;5011463;28;20331;-74
2023/03/06 02:24:31;;;;;;;;;;;3.90;87.60;;;;;;4995057;28;19909;-74
2023/03/06 02:26:58;;;;;;;;;;;3.90;88.10;;;;;;5004089;28;20365;-74
2023/03/06 02:29:25;;;;;;;;;;;3.90;88.20;;;;;;5003349;28;20020;-74
2023/03/06 02:31:51;;;;;;;;;;;4.00;88.20;;;;;;5004591;28;20004;-74
2023/03/06 02:34:19;;;;;;;;;;;4.00;87.80;;;;;;5006674;28;20533;-75
2023/03/06 02:36:49;;;;;;;;;;;3.90;87.60;;;;;;5006005;28;19960;-74
2023/03/06 02:39:17;;;;;;;;;;;3.90;87.70;;;;;;5004902;28;20498;-74
2023/03/06 02:41:42;;;;;;;;;;;3.80;87.70;;;;;;5006837;28;20656;-74
2023/03/06 02:44:08;;;;;;;;;;;3.90;88.00;;;;;;5006413;28;19921;-74
2023/03/06 02:46:33;;;;;;;;;;;3.90;87.90;;;;;;4998871;28;19918;-74
2023/03/06 02:48:59;;;;;;;;;;;3.90;87.90;;;;;;5008566;28;20419;-73
2023/03/06 02:51:24;;;;;;;;;;;3.80;87.70;;;;;;5007177;28;19973;-74
2023/03/06 02:53:50;;;;;;;;;;;3.80;87.70;;;;;;5002779;28;19956;-74
2023/03/06 02:56:15;;;;;;;;;;;3.80;88.10;;;;;;5003748;28;20258;-74
2023/03/06 02:58:41;;;;;;;;;;;3.80;88.30;;;;;;5004809;28;19997;-74
2023/03/06 03:01:06;;;;;;;;;;;3.90;88.00;;;;;;5001657;28;19921;-74
2023/03/06 03:03:32;;;;;;;;;;;3.90;87.80;;;;;;4999698;28;20331;-74
2023/03/06 03:05:58;;;;;;;;;;;3.90;87.90;;;;;;5009676;28;19921;-74
2023/03/06 03:08:24;;;;;;;;;;;3.80;87.50;;;;;;5001739;28;20285;-74
2023/03/06 03:10:49;;;;;;;;;;;3.70;87.30;;;;;;5007951;28;19917;-74
2023/03/06 03:13:15;;;;;;;;;;;3.70;87.30;;;;;;5001682;28;19922;-74
2023/03/06 03:15:40;;;;;;;;;;;3.70;87.10;;;;;;5005276;28;20335;-74
2023/03/06 03:18:06;;;;;;;;;;;3.60;87.20;;;;;;5008741;28;19909;-74
2023/03/06 03:20:31;;;;;;;;;;;3.70;87.20;;;;;;5006511;28;20740;-74
2023/03/06 03:22:57;;;;;;;;;;;3.60;87.70;;;;;;4996204;28;20263;-73
2023/03/06 03:25:23;;;;;;;;;;;3.60;87.80;;;;;;5009423;28;19917;-74
2023/03/06 03:27:49;;;;;;;;;;;3.60;87.20;;;;;;5001657;28;19925;-74
2023/03/06 03:30:14;;;;;;;;;;;3.70;87.40;;;;;;5002177;28;19921;-73
2023/03/06 03:32:40;;;;;;;;;;;3.70;87.40;;;;;;4996878;28;19913;-74
2023/03/06 03:35:07;;;;;;;;;;;3.70;87.40;;;;;;5006623;28;21467;-74
2023/03/06 03:37:33;;;;;;;;;;;3.70;87.70;;;;;;5004203;28;19924;-74
2023/03/06 03:39:59;;;;;;;;;;;3.70;87.70;;;;;;5007131;28;19922;-73
2023/03/06 03:42:24;;;;;;;;;;;3.60;87.60;;;;;;5000445;28;20404;-74
2023/03/06 03:44:50;;;;;;;;;;;3.70;87.70;;;;;;4998483;28;19914;-74
2023/03/06 03:47:15;;;;;;;;;;;3.70;87.30;;;;;;5000304;28;20293;-74
2023/03/06 03:49:40;;;;;;;;;;;3.70;87.70;;;;;;5002715;28;19919;-74
2023/03/06 03:52:06;;;;;;;;;;;3.80;88.00;;;;;;5001601;28;19920;-74
2023/03/06 03:54:31;;;;;;;;;;;3.80;87.80;;;;;;5008947;28;20313;-74
2023/03/06 03:56:57;;;;;;;;;;;3.80;88.10;;;;;;4994566;28;19940;-74
2023/03/06 03:59:22;;;;;;;;;;;3.70;88.20;;;;;;5006019;28;19917;-75
2023/03/06 04:01:51;;;;;;;;;;;3.80;88.10;;;;;;5001369;28;19922;-77
2023/03/06 04:04:17;;;;;;;;;;;3.70;88.00;;;;;;5005552;28;19918;-75
2023/03/06 04:06:42;;;;;;;;;;;3.80;87.90;;;;;;5007871;28;20071;-75
2023/03/06 04:09:08;;;;;;;;;;;3.80;87.60;;;;;;5003953;28;20018;-76
2023/03/06 04:11:33;;;;;;;;;;;3.90;87.80;;;;;;5002240;28;19921;-75
2023/03/06 04:13:59;;;;;;;;;;;3.90;87.80;;;;;;5004181;28;20377;-75
2023/03/06 04:16:24;;;;;;;;;;;3.90;87.40;;;;;;4998919;28;19918;-75
2023/03/06 04:18:50;;;;;;;;;;;3.90;87.20;;;;;;5000926;28;20381;-75
2023/03/06 04:21:15;;;;;;;;;;;3.90;87.20;;;;;;5002422;28;20039;-75
2023/03/06 04:23:41;;;;;;;;;;;3.90;86.70;;;;;;4996785;28;19914;-76
2023/03/06 04:26:06;;;;;;;;;;;3.80;87.00;;;;;;5000701;28;19914;-75
2023/03/06 04:28:32;;;;;;;;;;;3.80;87.30;;;;;;4997090;28;19921;-76
2023/03/06 04:30:57;;;;;;;;;;;3.80;87.30;;;;;;5004248;28;19925;-76
2023/03/06 04:33:23;;;;;;;;;;;3.80;87.20;;;;;;5001245;28;20435;-76
2023/03/06 04:35:49;;;;;;;;;;;3.90;87.10;;;;;;5007238;28;20000;-76
2023/03/06 04:38:14;;;;;;;;;;;3.80;86.60;;;;;;4998058;28;20391;-76
2023/03/06 04:40:40;;;;;;;;;;;3.80;86.60;;;;;;5007484;28;19921;-76
2023/03/06 04:43:05;;;;;;;;;;;3.70;86.30;;;;;;5004528;28;19914;-76
2023/03/06 04:45:31;;;;;;;;;;;3.70;86.10;;;;;;5011234;28;19924;-76
2023/03/06 04:47:57;;;;;;;;;;;3.70;86.30;;;;;;5011130;28;20401;-76
2023/03/06 04:50:23;;;;;;;;;;;3.60;86.50;;;;;;5005683;28;19972;-76
2023/03/06 04:52:49;;;;;;;;;;;3.70;86.70;;;;;;5007698;28;19995;-76
2023/03/06 04:55:15;;;;;;;;;;;3.70;86.70;;;;;;5001174;28;19925;-76
2023/03/06 04:57:41;;;;;;;;;;;3.70;86.50;;;;;;4996771;28;20416;-76
2023/03/06 05:00:09;;;;;;;;;;;3.70;86.70;;;;;;5004251;28;19920;-76
2023/03/06 05:02:35;;;;;;;;;;;3.80;86.90;;;;;;5002854;28;19960;-75
2023/03/06 05:05:01;;;;;;;;;;;3.80;87.00;;;;;;5023274;28;19980;-75
2023/03/06 05:07:26;;;;;;;;;;;3.80;85.80;;;;;;5005289;28;19918;-74
2023/03/06 05:09:52;;;;;;;;;;;3.80;85.60;;;;;;5002996;28;20389;-73
2023/03/06 05:12:17;;;;;;;;;;;3.70;86.00;;;;;;4997124;28;19924;-75
2023/03/06 05:14:43;;;;;;;;;;;3.60;85.20;;;;;;5005267;28;20009;-75
2023/03/06 05:17:09;;;;;;;;;;;3.40;85.40;;;;;;5004040;28;19921;-75
2023/03/06 05:19:34;;;;;;;;;;;3.40;85.60;;;;;;5006751;28;20122;-76
2023/03/06 05:22:00;;;;;;;;;;;3.40;85.80;;;;;;5005153;28;20299;-76
2023/03/06 05:24:25;;;;;;;;;;;3.40;86.30;;;;;;5004860;28;19913;-75
2023/03/06 05:26:51;;;;;;;;;;;3.30;86.20;;;;;;5004190;28;20402;-75
2023/03/06 05:29:16;;;;;;;;;;;3.40;86.70;;;;;;5006620;28;19921;-76
2023/03/06 05:31:42;;;;;;;;;;;3.40;85.90;;;;;;5000455;28;20297;-74
2023/03/06 05:34:09;;;;;;;;;;;3.30;85.90;;;;;;5002668;28;19913;-75
2023/03/06 05:36:34;;;;;;;;;;;3.30;85.80;;;;;;5010186;28;19914;-76
2023/03/06 05:39:00;;;;;;;;;;;3.30;86.10;;;;;;5007051;28;20016;-75
2023/03/06 05:41:25;;;;;;;;;;;3.20;85.80;;;;;;5000252;28;19953;-75
2023/03/06 05:43:51;;;;;;;;;;;3.20;85.70;;;;;;4999704;28;19921;-76
2023/03/06 05:46:17;;;;;;;;;;;3.10;85.90;;;;;;5044544;23;19925;-84
2023/03/06 05:48:42;;;;;;;;;;;3.10;86.40;;;;;;5029128;28;19917;-84
2023/03/06 05:51:09;;;;;;;;;;;3.10;85.90;;;;;;5043278;28;19921;-85
2023/03/06 05:53:34;;;;;;;;;;;3.10;86.20;;;;;;5040421;28;19933;-84
2023/03/06 05:56:01;;;;;;;;;;;3.00;86.50;;;;;;5032761;28;20346;-84
2023/03/06 05:58:27;;;;;;;;;;;3.10;86.30;;;;;;5032185;28;19936;-84
2023/03/06 06:00:52;;;;;;;;;;;3.10;86.70;;;;;;5029980;28;19913;-82
2023/03/06 06:03:18;;;;;;;;;;;3.10;86.90;;;;;;5049167;28;19903;-83
2023/03/06 06:05:43;;;;;;;;;;;3.10;87.00;;;;;;5040145;28;19976;-84
2023/03/06 06:08:09;;;;;;;;;;;3.10;86.90;;;;;;5029115;28;20559;-85
2023/03/06 06:10:34;;;;;;;;;;;3.20;87.10;;;;;;5027282;28;19918;-85
2023/03/06 06:13:00;;;;;;;;;;;3.10;87.10;;;;;;5034925;28;19928;-85
2023/03/06 06:15:27;;;;;;;;;;;3.20;86.90;;;;;;5042152;28;19989;-85
2023/03/06 06:17:53;;;;;;;;;;;3.10;86.80;;;;;;5039251;28;19921;-85
2023/03/06 06:20:19;;;;;;;;;;;3.20;86.90;;;;;;5028931;28;19913;-85
2023/03/06 06:22:44;;;;;;;;;;;3.20;87.10;;;;;;5036922;28;19920;-84
2023/03/06 06:25:10;;;;;;;;;;;3.30;87.20;;;;;;5041817;28;19948;-84
2023/03/06 06:28:02;;;;;;;;;;;3.30;87.00;;;;;;5035478;28;20016;-84
2023/03/06 06:30:27;;;;;;;;;;;3.40;86.70;;;;;;5024458;28;19995;-84
2023/03/06 06:32:56;;;;;;;;;;;3.40;86.40;;;;;;5028114;28;20840;-85
2023/03/06 06:35:21;;;;;;;;;;;3.30;86.30;;;;;;5028774;28;19939;-84
2023/03/06 06:37:47;;;;;;;;;;;3.30;86.30;;;;;;5026553;28;20466;-84
2023/03/06 06:40:13;;;;;;;;;;;3.40;86.50;;;;;;5025086;28;19917;-84
2023/03/06 06:42:38;;;;;;;;;;;3.30;86.30;;;;;;5034915;28;20382;-83
2023/03/06 06:45:04;;;;;;;;;;;3.40;86.50;;;;;;5032122;28;20034;-82
2023/03/06 06:47:30;;;;;;;;;;;3.50;86.30;;;;;;5027968;28;19913;-83
2023/03/06 06:49:55;;;;;;;;;;;3.50;86.20;;;;;;5032089;28;20358;-84
2023/03/06 06:52:21;;;;;;;;;;;3.30;86.10;;;;;;5033612;28;19913;-85
2023/03/06 06:54:51;;;;;;;;;;;3.40;86.30;;;;;;5034272;28;19913;-85
2023/03/06 06:57:22;;;;;;;;;;;3.40;86.40;;;;;;5030725;28;20373;-85
2023/03/06 06:59:49;;;;;;;;;;;3.40;86.10;;;;;;5023970;28;19964;-85
2023/03/06 07:05:04;;;;;;;;;;;3.30;86.50;;;;;;5055384;28;20336;-84
2023/03/06 07:07:32;;;;;;;;;;;3.40;86.40;;;;;;5037920;28;19909;-85
2023/03/06 07:10:02;;;;;;;;;;;3.50;86.20;;;;;;5033857;28;19996;-85
2023/03/06 07:12:31;;;;;;;;;;;3.40;86.00;;;;;;5033389;28;19923;-84
2023/03/06 07:14:56;;;;;;;;;;;3.50;85.90;;;;;;5033801;28;19913;-85
2023/03/06 07:17:29;;;;;;;;;;;3.50;85.60;;;;;;5036468;28;19913;-84
2023/03/06 07:19:55;;;;;;;;;;;3.50;85.40;;;;;;5055537;28;20000;-85
2023/03/06 07:22:24;;;;;;;;;;;3.50;85.60;;;;;;5030828;28;19948;-84
2023/03/06 07:24:49;;;;;;;;;;;3.50;85.90;;;;;;5054171;28;19958;-85
2023/03/06 07:27:25;;;;;;;;;;;3.50;85.80;;;;;;5036346;28;20032;-84
2023/03/06 07:29:51;;;;;;;;;;;3.50;85.80;;;;;;5038901;28;19928;-85
2023/03/06 07:32:17;;;;;;;;;;;3.50;85.80;;;;;;5055850;28;19920;-85
2023/03/06 07:34:44;;;;;;;;;;;3.60;85.90;;;;;;5036233;28;19931;-84
2023/03/06 07:37:12;;;;;;;;;;;3.50;85.30;;;;;;5057313;28;19917;-84
2023/03/06 07:39:47;;;;;;;;;;;3.60;85.50;;;;;;5056962;28;19916;-85
2023/03/06 07:42:13;;;;;;;;;;;3.60;85.10;;;;;;5052019;28;19912;-84
2023/03/06 07:44:38;;;;;;;;;;;3.60;85.30;;;;;;5038027;28;19965;-84
2023/03/06 07:47:12;;;;;;;;;;;3.60;85.00;;;;;;5068292;28;20350;-85
2023/03/06 07:49:46;;;;;;;;;;;3.60;85.10;;;;;;5039302;28;19998;-85
2023/03/06 07:52:12;;;;;;;;;;;3.60;85.10;;;;;;5035492;28;20031;-84
2023/03/06 07:54:38;;;;;;;;;;;3.60;84.80;;;;;;5037897;28;19909;-85
2023/03/06 07:57:12;;;;;;;;;;;3.70;85.40;;;;;;5036656;28;19994;-84
2023/03/06 07:59:38;;;;;;;;;;;3.70;85.10;;;;;;5039430;28;19912;-85
2023/03/06 08:02:10;;;;;;;;;;;3.80;85.00;;;;;;5053444;28;19923;-85
2023/03/06 08:04:35;;;;;;;;;;;3.70;85.10;;;;;;5033890;28;19944;-85
2023/03/06 08:07:02;;;;;;;;;;;3.60;85.10;;;;;;5034708;28;19946;-84
2023/03/06 08:09:30;;;;;;;;;;;3.70;85.00;;;;;;5049714;28;20336;-85
2023/03/06 08:12:02;;;;;;;;;;;3.70;85.40;;;;;;5036104;28;19909;-85
2023/03/06 08:14:33;;;;;;;;;;;3.70;85.20;;;;;;5034345;28;19948;-84
2023/03/06 08:16:58;;;;;;;;;;;3.70;85.20;;;;;;5036269;28;19916;-84
2023/03/06 08:19:24;;;;;;;;;;;3.70;85.00;;;;;;5036211;28;19917;-84
2023/03/06 08:21:49;;;;;;;;;;;3.80;85.10;;;;;;5034416;28;19924;-84
2023/03/06 08:24:17;;;;;;;;;;;3.80;85.40;;;;;;5035248;28;20308;-85
2023/03/06 08:26:43;;;;;;;;;;;3.80;85.10;;;;;;5034308;28;19923;-84
2023/03/06 08:29:18;;;;;;;;;;;3.80;85.20;;;;;;5052733;28;20008;-85
2023/03/06 08:31:44;;;;;;;;;;;3.90;85.30;;;;;;5035158;28;19909;-85
2023/03/06 08:34:12;;;;;;;;;;;3.80;85.30;;;;;;5031074;28;19967;-85
2023/03/06 08:36:37;;;;;;;;;;;3.80;85.40;;;;;;5034487;28;19921;-85
2023/03/06 08:39:03;;;;;;;;;;;3.80;85.70;;;;;;5035224;28;19920;-85
2023/03/06 08:41:31;;;;;;;;;;;3.90;85.30;;;;;;5035169;28;19909;-86
2023/03/06 08:43:56;;;;;;;;;;;4.00;85.40;;;;;;5035148;28;19913;-85
2023/03/06 08:46:24;;;;;;;;;;;4.00;85.00;;;;;;5061282;28;20552;-86
2023/03/06 08:48:49;;;;;;;;;;;3.90;85.40;;;;;;5048010;28;19920;-86
2023/03/06 08:51:15;;;;;;;;;;;4.00;85.30;;;;;;5036056;28;19924;-84
2023/03/06 08:53:41;;;;;;;;;;;4.00;85.20;;;;;;5032419;28;19916;-86
2023/03/06 08:56:07;;;;;;;;;;;4.00;85.50;;;;;;5028890;28;20507;-85
2023/03/06 08:58:32;;;;;;;;;;;3.90;85.50;;;;;;5031848;28;19909;-85
2023/03/06 09:00:58;;;;;;;;;;;4.10;85.50;;;;;;5063708;28;19923;-85
2023/03/06 09:03:24;;;;;;;;;;;4.10;85.80;;;;;;5073068;28;19910;-85
2023/03/06 09:05:50;;;;;;;;;;;4.10;86.10;;;;;;5059796;28;19912;-84
2023/03/06 09:08:16;;;;;;;;;;;4.00;86.50;;;;;;5051124;28;19931;-85
2023/03/06 09:10:48;;;;;;;;;;;4.10;86.60;;;;;;5035016;28;20348;-85
2023/03/06 09:13:13;;;;;;;;;;;4.10;86.50;;;;;;5044570;28;19931;-85
2023/03/06 09:15:39;;;;;;;;;;;4.10;86.70;;;;;;5040599;28;20350;-86
2023/03/06 09:18:05;;;;;;;;;;;4.10;86.70;;;;;;5030076;28;20373;-84
2023/03/06 09:20:30;;;;;;;;;;;4.00;87.00;;;;;;5034236;28;19919;-85
2023/03/06 09:22:56;;;;;;;;;;;3.80;87.20;;;;;;5056498;28;19920;-83
2023/03/06 09:25:22;;;;;;;;;;;3.80;87.60;;;;;;5043943;28;19920;-84
2023/03/06 09:27:48;;;;;;;;;;;3.80;87.90;;;;;;5057137;28;20005;-84
2023/03/06 09:30:17;;;;;;;;;;;3.90;87.90;;;;;;5036312;28;19928;-84
2023/03/06 09:32:46;;;;;;;;;;;3.90;88.10;;;;;;5051193;28;20617;-85
2023/03/06 09:35:13;;;;;;;;;;;3.90;88.00;;;;;;5046040;28;19967;-85
2023/03/06 09:37:38;;;;;;;;;;;4.00;88.00;;;;;;5043693;28;19913;-85
2023/03/06 09:40:13;;;;;;;;;;;4.10;88.30;;;;;;5044419;28;19955;-84
2023/03/06 09:42:39;;;;;;;;;;;4.00;88.10;;;;;;5038541;28;19912;-84
2023/03/06 09:45:05;;;;;;;;;;;4.00;88.00;;;;;;5044677;28;19917;-84
2023/03/06 09:47:34;;;;;;;;;;;4.10;88.10;;;;;;5061557;28;20693;-84
2023/03/06 09:50:04;;;;;;;;;;;4.10;88.10;;;;;;5042519;28;19924;-85
2023/03/06 09:52:35;;;;;;;;;;;4.10;88.00;;;;;;5041941;28;19958;-85
2023/03/06 09:55:03;;;;;;;;;;;4.10;87.80;;;;;;5033600;28;20004;-84
2023/03/06 09:57:49;;;;;;;;;;;4.00;87.90;;;;;;5055559;28;20055;-84
2023/03/06 10:00:18;;;;;;;;;;;4.10;87.80;;;;;;5002650;28;20007;-85
2023/03/06 10:02:46;;;;;;;;;;;4.10;87.90;;;;;;5056568;28;19954;-85
2023/03/06 10:05:15;;;;;;;;;;;4.10;87.80;;;;;;5057435;28;19920;-85
2023/03/06 10:07:45;;;;;;;;;;;4.00;87.60;;;;;;5035953;28;19924;-83
2023/03/06 10:10:15;;;;;;;;;;;4.00;87.70;;;;;;5035634;28;19923;-83
2023/03/06 10:12:47;;;;;;;;;;;4.00;87.50;;;;;;5037432;28;19917;-84
2023/03/06 10:15:27;;;;;;;;;;;4.00;87.80;;;;;;5034894;28;19913;-84
2023/03/06 10:17:52;;;;;;;;;;;4.10;87.60;;;;;;5031599;28;19913;-84
2023/03/06 10:20:21;;;;;;;;;;;4.10;87.50;;;;;;5046408;28;20396;-84
2023/03/06 10:22:56;;;;;;;;;;;4.10;87.30;;;;;;5043501;28;19955;-83
2023/03/06 10:25:24;;;;;;;;;;;4.10;86.70;;;;;;5055918;28;20008;-86
2023/03/06 10:27:56;;;;;;;;;;;4.20;86.80;;;;;;5059607;28;19912;-86
2023/03/06 10:30:31;;;;;;;;;;;4.30;86.30;;;;;;5038083;28;19921;-86
2023/03/06 10:33:04;;;;;;;;;;;4.50;86.30;;;;;;5053591;28;19964;-86
2023/03/06 10:35:36;;;;;;;;;;;4.60;86.20;;;;;;5040487;28;19952;-83
2023/03/06 10:38:19;;;;;;;;;;;4.70;85.50;;;;;;5045793;28;20010;-84
2023/03/06 10:40:59;;;;;;;;;;;4.80;85.10;;;;;;5040632;28;19920;-84
2023/03/06 10:43:29;;;;;;;;;;;5.00;83.30;;;;;;5049446;28;19952;-84
2023/03/06 10:45:54;;;;;;;;;;;5.00;83.50;;;;;;5038415;28;19920;-84
2023/03/06 10:48:24;;;;;;;;;;;4.90;83.30;;;;;;5048209;28;19931;-85
2023/03/06 10:50:50;;;;;;;;;;;4.90;83.90;;;;;;5057403;28;20374;-84
2023/03/06 10:53:22;;;;;;;;;;;4.90;82.80;;;;;;5055598;28;19928;-84
2023/03/06 10:55:51;;;;;;;;;;;4.90;83.10;;;;;;5058016;28;20279;-82
2023/03/06 10:58:18;;;;;;;;;;;4.80;82.60;;;;;;5042475;28;20451;-83
2023/03/06 11:00:44;;;;;;;;;;;4.60;82.10;;;;;;5037688;28;19913;-84
2023/03/06 11:03:15;;;;;;;;;;;4.60;81.00;;;;;;5038277;28;20000;-83
2023/03/06 11:05:52;;;;;;;;;;;4.60;81.10;;;;;;5036496;28;20258;-84
2023/03/06 11:08:19;;;;;;;;;;;4.60;81.40;;;;;;5026987;28;19928;-82
2023/03/06 11:10:53;;;;;;;;;;;4.60;81.80;;;;;;5034845;28;19975;-83
2023/03/06 11:13:23;;;;;;;;;;;4.60;81.60;;;;;;5036420;28;19920;-84
2023/03/06 11:16:07;;;;;;;;;;;4.70;82.00;;;;;;5052059;28;19913;-81
2023/03/06 11:18:37;;;;;;;;;;;4.80;81.50;;;;;;5024156;28;20492;-82
2023/03/06 11:21:06;;;;;;;;;;;5.00;81.00;;;;;;5024738;28;19917;-83
2023/03/06 11:23:42;;;;;;;;;;;5.00;81.50;;;;;;5027452;28;19928;-81
2023/03/06 11:26:14;;;;;;;;;;;5.00;80.50;;;;;;5051458;28;20007;-82
2023/03/06 11:28:53;;;;;;;;;;;5.10;80.40;;;;;;5045419;28;20154;-83
2023/03/06 11:31:38;;;;;;;;;;;5.10;80.30;;;;;;5035316;28;19931;-83
2023/03/06 11:34:12;;;;;;;;;;;5.20;80.40;;;;;;5041749;28;19936;-83
2023/03/06 11:36:50;;;;;;;;;;;5.40;79.40;;;;;;5039285;28;19998;-82
2023/03/06 11:39:23;;;;;;;;;;;5.40;79.60;;;;;;5057352;28;19909;-83
2023/03/06 11:42:00;;;;;;;;;;;5.30;79.50;;;;;;5037049;28;19910;-83
2023/03/06 11:44:44;;;;;;;;;;;5.40;78.90;;;;;;5019047;28;19909;-82
2023/03/06 11:47:18;;;;;;;;;;;5.50;78.10;;;;;;4664328;22;19925;-83
2023/03/06 11:49:48;;;;;;;;;;;5.60;77.70;;;;;;5044504;28;19923;-84
2023/03/06 11:52:20;;;;;;;;;;;5.60;76.90;;;;;;5039829;28;20370;-84
2023/03/06 11:54:51;;;;;;;;;;;5.50;77.20;;;;;;5037920;28;19909;-85
2023/03/06 11:57:19;;;;;;;;;;;5.50;75.90;;;;;;5034662;28;19909;-85
2023/03/06 11:59:44;;;;;;;;;;;5.50;75.10;;;;;;5069428;28;19902;-85
2023/03/06 12:02:25;;;;;;;;;;;5.50;75.70;;;;;;5067073;28;19927;-83
2023/03/06 12:04:58;;;;;;;;;;;5.60;76.10;;;;;;5042253;28;19917;-85
2023/03/06 12:07:34;;;;;;;;;;;5.80;74.30;;;;;;5046270;28;20316;-84
2023/03/06 12:10:09;;;;;;;;;;;5.90;73.50;;;;;;5049269;28;19924;-85
2023/03/06 12:12:43;;;;;;;;;;;6.10;73.70;;;;;;5037794;28;20389;-84
2023/03/06 12:15:09;;;;;;;;;;;6.20;73.10;;;;;;5034862;28;19983;-84
2023/03/06 12:17:49;;;;;;;;;;;6.30;72.60;;;;;;5047267;28;19951;-85
2023/03/06 12:20:33;;;;;;;;;;;6.50;73.30;;;;;;5051501;28;19909;-85
2023/03/06 12:23:05;;;;;;;;;;;6.50;72.90;;;;;;5052608;28;19982;-85
2023/03/06 12:25:33;;;;;;;;;;;6.30;71.90;;;;;;5052233;28;19917;-85
2023/03/06 12:28:14;;;;;;;;;;;6.10;70.00;;;;;;5051279;28;20290;-86
2023/03/06 12:30:45;;;;;;;;;;;6.10;71.50;;;;;;5046379;28;19923;-83
2023/03/06 12:33:19;;;;;;;;;;;6.10;69.20;;;;;;5043445;28;19955;-85
2023/03/06 12:36:01;;;;;;;;;;;6.10;68.30;;;;;;5059060;28;19909;-85
2023/03/06 12:38:47;;;;;;;;;;;6.10;70.90;;;;;;5054417;28;20366;-86
2023/03/06 12:41:21;;;;;;;;;;;6.30;71.70;;;;;;5053491;28;19963;-85
2023/03/06 12:43:47;;;;;;;;;;;6.30;68.50;;;;;;5053583;28;20008;-86
2023/03/06 12:46:14;;;;;;;;;;;6.40;67.30;;;;;;5044397;28;19956;-84
2023/03/06 12:48:42;;;;;;;;;;;6.50;68.70;;;;;;5054351;28;19912;-84
2023/03/06 12:51:09;;;;;;;;;;;6.50;68.20;;;;;;5054185;28;20016;-85
2023/03/06 12:53:35;;;;;;;;;;;6.60;67.40;;;;;;5052207;28;19947;-84
2023/03/06 12:56:01;;;;;;;;;;;6.60;66.60;;;;;;5057899;28;19917;-85
2023/03/06 12:58:29;;;;;;;;;;;6.60;66.90;;;;;;5054115;28;20000;-85
2023/03/06 13:01:15;;;;;;;;;;;6.60;67.40;;;;;;5056910;28;19952;-83
2023/03/06 13:03:52;;;;;;;;;;;6.50;68.60;;;;;;5055930;28;19938;-83
2023/03/06 13:06:24;;;;;;;;;;;6.30;68.30;;;;;;5054344;28;19924;-84
2023/03/06 13:09:08;;;;;;;;;;;6.30;67.60;;;;;;5055525;28;19909;-84
2023/03/06 13:11:46;;;;;;;;;;;6.40;69.60;;;;;;5037509;28;19936;-84
2023/03/06 13:14:27;;;;;;;;;;;6.40;67.60;;;;;;5044004;28;19938;-83
2023/03/06 13:16:52;;;;;;;;;;;6.50;68.70;;;;;;5038156;28;19908;-84
2023/03/06 13:19:20;;;;;;;;;;;6.50;69.20;;;;;;5056111;28;20299;-85
2023/03/06 13:21:55;;;;;;;;;;;6.40;69.10;;;;;;5064239;28;19958;-85
2023/03/06 13:24:21;;;;;;;;;;;6.50;69.00;;;;;;5037979;28;19959;-85
2023/03/06 13:26:48;;;;;;;;;;;6.40;69.60;;;;;;5028672;28;19913;-84
2023/03/06 13:29:32;;;;;;;;;;;6.30;68.90;;;;;;5056204;28;19932;-84
2023/03/06 13:32:00;;;;;;;;;;;6.20;67.30;;;;;;5055093;28;19920;-83
2023/03/06 13:34:39;;;;;;;;;;;6.40;68.40;;;;;;5052791;28;20003;-85
2023/03/06 13:37:24;;;;;;;;;;;6.40;67.60;;;;;;5056020;28;19909;-85
2023/03/06 13:39:59;;;;;;;;;;;6.30;67.20;;;;;;5053605;28;19912;-84
2023/03/06 13:42:26;;;;;;;;;;;6.40;66.60;;;;;;5041188;28;20003;-84
2023/03/06 13:44:51;;;;;;;;;;;6.40;67.40;;;;;;5059937;28;20418;-85
2023/03/06 13:47:27;;;;;;;;;;;6.40;67.80;;;;;;5077334;28;19963;-84
2023/03/06 13:49:53;;;;;;;;;;;6.40;66.60;;;;;;5063236;28;19963;-86
2023/03/06 13:52:30;;;;;;;;;;;6.50;64.90;;;;;;5080293;28;19909;-85
2023/03/06 13:55:01;;;;;;;;;;;6.50;65.60;;;;;;5062069;28;19908;-85
2023/03/06 13:57:36;;;;;;;;;;;6.50;64.80;;;;;;5079945;28;19968;-85
2023/03/06 14:00:20;;;;;;;;;;;6.60;63.80;;;;;;5050812;28;20419;-85
2023/03/06 14:02:49;;;;;;;;;;;6.60;64.60;;;;;;5053824;28;19948;-85
2023/03/06 14:05:15;;;;;;;;;;;6.50;63.90;;;;;;5057563;28;19976;-85
2023/03/06 14:07:45;;;;;;;;;;;6.40;65.40;;;;;;5057036;28;19939;-84
2023/03/06 14:10:24;;;;;;;;;;;6.50;63.60;;;;;;5039722;28;20449;-85
2023/03/06 14:12:50;;;;;;;;;;;6.40;65.20;;;;;;5058862;28;20045;-85
2023/03/06 14:15:15;;;;;;;;;;;6.50;64.00;;;;;;5054516;28;20011;-86
2023/03/06 14:17:47;;;;;;;;;;;6.50;63.80;;;;;;5055088;28;20012;-85
2023/03/06 14:20:15;;;;;;;;;;;6.50;61.50;;;;;;5049313;28;19970;-86
2023/03/06 14:22:40;;;;;;;;;;;6.50;61.70;;;;;;5043816;28;19917;-85
2023/03/06 14:25:12;;;;;;;;;;;6.50;61.70;;;;;;5069292;28;19900;-84
2023/03/06 14:27:48;;;;;;;;;;;6.60;60.90;;;;;;5062649;28;19923;-84
2023/03/06 14:30:15;;;;;;;;;;;6.60;60.40;;;;;;5040147;28;20008;-84
2023/03/06 14:32:41;;;;;;;;;;;6.60;61.10;;;;;;5052678;28;20066;-83
2023/03/06 14:35:18;;;;;;;;;;;6.70;59.40;;;;;;5053101;28;19908;-85
2023/03/06 14:37:46;;;;;;;;;;;6.90;60.20;;;;;;5056314;28;20298;-84
2023/03/06 14:40:17;;;;;;;;;;;7.00;58.50;;;;;;5038358;28;20040;-84